CheckWX is a tool to help pilots better visualize weather data.  It is not intended as a substitute for an official pre-flight weather briefing.

04:04:57 UTC

KSFF METAR
Felts Field Airport
Spokane, Washington, USA
Current

12 mins ago

KSFF 260353Z AUTO 01003KT 10SM OVC075 16/08 A2981 RMK AO2 SLP092 T01560083
Observed
May-26 @ 03:53 UTC
Wind
  • 010° at 3 KTS
Visibility
10 SM
Flight Rules
VFR
Cloud Levels
  • Overcast at 7,500' AGL
Temperature
16°C / 61°F
Dewpoint
C / 46°F
Humidity
59%
Altimeter
29.81" Hg
Pressure
1009.52 hPa
Previous

1 hour ago

KSFF 260253Z AUTO 05006KT 10SM SCT046 OVC080 17/08 A2981 RMK AO2 SLP089 T01670078 55004
Observed
May-26 @ 02:53 UTC
Wind
  • 050° at 6 KTS
Visibility
10 SM
Flight Rules
VFR
Cloud Levels
  • Scattered at 4,600' AGL
  • Overcast at 8,000' AGL
Temperature
17°C / 63°F
Dewpoint
C / 46°F
Humidity
56%
Altimeter
29.81" Hg
Pressure
1009.52 hPa
Previous

2 hours ago

KSFF 260153Z 36005KT 10SM FEW060 BKN080 18/08 A2980 RMK AO2 SLP086 T01830083
Observed
May-26 @ 01:53 UTC
Wind
  • 360° at 5 KTS
Visibility
10 SM
Flight Rules
VFR
Cloud Levels
  • Few at 6,000' AGL
  • Broken at 8,000' AGL
Temperature
18°C / 64°F
Dewpoint
C / 46°F
Humidity
52%
Altimeter
29.8" Hg
Pressure
1009.12 hPa